Disney Magic — C6PT7 — position and weather

sailwx.info

Track history (hours):
 
Tides and Currents Weather Stations Pressure Air Temp Water Temp Dewpoint Dewpoint Depression Visibility Wind Speed Wind Dir Waves Ship Positions

Disney Magic

Last reported at 2019-May-22 02:25 UTC. Time now 2019-May-22 16:40 UTC.
Position N 36°33' W 007°56'.

Type: Passenger vessel. MMSI: 308516000.

Date/timePositionNaut miles runAvg speedWind from/ knotsBaromVisibWave heightAir tempDewpointWater temp
2019-May-22 02:25N 36°33' W 007°56'921.5
2019-May-22 02:00N 36°32' W 008°07'1121.5
2019-May-22 01:29N 36°30' W 008°21'1121.4
2019-May-22 00:59N 36°30' W 008°34'1021.7
2019-May-22 00:30N 36°31' W 008°47'1421.9
2019-May-21 23:51N 36°31' W 009°04'1121.7
2019-May-21 23:22N 36°33' W 009°17'1022.0
2019-May-21 22:54N 36°41' W 009°25'5621.0
2019-May-21 20:13N 37°37' W 009°32'522.1
2019-May-21 20:00N 37°42' W 009°31'1122.0
2019-May-21 19:31N 37°53' W 009°29'1121.5
2019-May-21 19:00N 38°04' W 009°28'1121.3
2019-May-21 18:30N 38°14' W 009°27'1121.3
2019-May-21 18:00N 38°25' W 009°25'1020.8
2019-May-21 17:30N 38°35' W 009°24'816.6
2019-May-21 17:00N 38°41' W 009°17'611.3
2019-May-21 16:30N 38°42' W 009°09'2 3.3
2019-May-21 15:59N 38°43' W 009°08'0 0.0
2019-May-21 15:29N 38°43' W 009°08'0 0.0
2019-May-21 14:59N 38°43' W 009°08'0 0.0
2019-May-21 14:26N 38°43' W 009°08'0 0.0
2019-May-21 13:59N 38°43' W 009°08'0 0.0
2019-May-21 13:29N 38°43' W 009°08'0 0.0
2019-May-21 12:59N 38°43' W 009°08'0 0.0
2019-May-21 12:29N 38°43' W 009°08'0 0.0
2019-May-21 11:59N 38°43' W 009°08'0 0.0
2019-May-21 11:29N 38°43' W 009°08'0 0.0
2019-May-21 10:59N 38°43' W 009°08'0 0.0
2019-May-21 10:29N 38°43' W 009°08'0 0.0
2019-May-21 09:59N 38°43' W 009°08'0 0.0
2019-May-21 09:29N 38°43' W 009°08'0 0.0
2019-May-21 08:59N 38°43' W 009°08'0 0.0
2019-May-21 08:29N 38°43' W 009°08'0 0.2
2019-May-21 08:00N 38°42' W 009°08'3 5.7
2019-May-21 07:30N 38°41' W 009°11'510.0
2019-May-21 07:01N 38°41' W 009°17'5 9.2
2019-May-21 06:31N 38°38' W 009°22'5 9.5
2019-May-21 06:01N 38°35' W 009°27'4 8.6
2019-May-21 05:31N 38°35' W 009°32'4 8.9
2019-May-21 05:00N 38°33' W 009°38'510.8
2019-May-21 04:30N 38°32' W 009°45'817.0
2019-May-21 04:00N 38°30' W 009°55'917.6
2019-May-21 03:30N 38°28' W 010°06'5315.0
2019-May-21 00:00N 38°18' W 011°12'24520.5 300 / 121018.3 5.4 18.014.618.0
2019-May-20 12:00N 38°06' W 016°24'18022.5 270 / 141020.310.8 18.014.617.0
2019-May-20 04:00N 37°55' W 020°12'2121.9
2019-May-20 03:02N 37°54' W 020°39'121.5
2019-May-20 03:01N 37°54' W 020°40'1421.8
2019-May-20 02:23N 37°53' W 020°57'1521.8
2019-May-20 01:43N 37°52' W 021°15'721.8
2019-May-20 01:24N 37°52' W 021°24'921.6
2019-May-20 00:58N 37°51' W 021°36'1321.2
2019-May-20 00:23N 37°50' W 021°52'821.3
2019-May-19 23:59N 37°50' W 022°02'1121.1
2019-May-19 23:29N 37°49' W 022°16'1020.8
2019-May-19 23:00N 37°48' W 022°28'1120.9
2019-May-19 22:30N 37°47' W 022°42'1021.2
2019-May-19 22:00N 37°47' W 022°55'1121.0
2019-May-19 21:30N 37°46' W 023°08'1321.0
2019-May-19 20:53N 37°45' W 023°25'821.0
2019-May-19 20:31N 37°45' W 023°34'1121.1
2019-May-19 20:01N 37°44' W 023°48'1121.3
2019-May-19 19:31N 37°43' W 024°01'1121.2
2019-May-19 19:01N 37°42' W 024°14'2116.5
2019-May-19 19:00N 37°42' W 024°12'1326.2 280 / 101022.710.8 18.014.618.4
2019-May-19 18:31N 37°41' W 024°28'1020.0
2019-May-19 18:00N 37°40' W 024°41'918.9
2019-May-19 17:31N 37°40' W 024°52'1020.7
2019-May-19 17:01N 37°39' W 025°06'1121.4
2019-May-19 16:31N 37°40' W 025°19'1020.5
2019-May-19 16:01N 37°41' W 025°32'714.2
2019-May-19 15:31N 37°44' W 025°40'0 0.2
2019-May-19 15:00N 37°44' W 025°40'0 0.0
2019-May-19 14:30N 37°44' W 025°40'0 0.0
2019-May-19 13:57N 37°44' W 025°40'0 0.0
2019-May-19 13:30N 37°44' W 025°40'0 0.0
2019-May-19 13:00N 37°44' W 025°40'0 0.0
2019-May-19 12:30N 37°44' W 025°40'0 0.0
2019-May-19 12:00N 37°44' W 025°40'0 0.0
2019-May-19 11:30N 37°44' W 025°40'0 0.0
2019-May-19 11:00N 37°44' W 025°40'0 0.0
2019-May-19 10:27N 37°44' W 025°40'0 0.0
2019-May-19 10:00N 37°44' W 025°40'0 0.0
2019-May-19 09:30N 37°44' W 025°40'0 0.0
2019-May-19 09:00N 37°44' W 025°40'0 0.0
2019-May-19 08:30N 37°44' W 025°40'0 0.0
2019-May-19 08:00N 37°44' W 025°40'0 0.0
2019-May-19 07:30N 37°44' W 025°40'0 0.0
2019-May-19 07:00N 37°44' W 025°40'0 0.0
2019-May-19 06:30N 37°44' W 025°40'0 0.9
2019-May-19 06:00N 37°44' W 025°39'2 3.9
2019-May-19 05:30N 37°43' W 025°41'713.1
2019-May-19 05:00N 37°41' W 025°48'816.6
2019-May-19 04:30N 37°39' W 025°59'917.4
2019-May-19 04:00N 37°36' W 026°09'815.1
2019-May-19 03:30N 37°34' W 026°18'815.0
2019-May-19 03:00N 37°32' W 026°27'816.8
2019-May-19 02:30N 37°30' W 026°38'917.9
2019-May-19 02:00N 37°28' W 026°49'917.7
2019-May-19 01:30N 37°25' W 026°60'917.8
2019-May-19 01:00N 37°23' W 027°10'917.9
2019-May-19 00:30N 37°21' W 027°21'917.7
2019-May-19 00:00N 37°18' W 027°32'917.5
2019-May-18 23:30N 37°16' W 027°42'917.5
2019-May-18 23:00N 37°14' W 027°53'917.6
2019-May-18 22:30N 37°12' W 028°04'1017.6
2019-May-18 21:57N 37°09' W 028°15'817.6
2019-May-18 21:29N 37°07' W 028°26'917.5
2019-May-18 20:59N 37°05' W 028°36'1417.9
2019-May-18 20:13N 37°01' W 028°52'417.6
2019-May-18 20:01N 36°60' W 028°57'1317.6
2019-May-18 19:14N 36°56' W 029°13'1017.5
2019-May-18 18:41N 36°54' W 029°25'517.4
2019-May-18 18:22N 36°52' W 029°32'1317.4
2019-May-18 17:36N 36°49' W 029°48'3717.4
2019-May-18 15:27N 36°39' W 030°33'1510.4
2019-May-18 14:00N 36°30' W 030°48'17015.5 140 / 31026.327.0 18.014.519.0
2019-May-18 03:00N 35°48' W 034°12'21316.3 010 / 71026.310.8 18.014.519.0
2019-May-17 14:00N 34°54' W 038°24'19119.1 1027.327.0 21.016.020.0
2019-May-17 04:00N 34°00' W 042°06'20216.9 160 / 161027.310.8 20.018.421.0
2019-May-16 16:00N 33°06' W 046°00'40617.6 170 / 181025.327.0 21.019.421.0
2019-May-15 17:00N 31°18' W 053°42'25120.9 180 / 271019.310.8 23.021.523.0
2019-May-15 05:00N 30°12' W 058°24'26422.0 190 / 301015.327.0 24.022.523.0
2019-May-14 17:00N 29°06' W 063°18'15321.9 190 / 251015.827.0 24.022.524.0
2019-May-14 10:00N 28°24' W 066°06'49821.6 180 / 211015.310.8 24.022.525.6
2019-May-13 11:00N 26°12' W 075°06'22220.8 170 / 161015.610.8 26.024.627.0
2019-May-13 00:20N 26°13' W 079°14'721.7
2019-May-13 00:00N 26°09' W 079°20'1019.8
2019-May-12 23:30N 26°04' W 079°30'1122.6
2019-May-12 23:00N 25°58' W 079°41'1122.8
2019-May-12 22:30N 25°53' W 079°52'1121.7
2019-May-12 22:01N 25°47' W 080°02'611.6
2019-May-12 21:30N 25°46' W 080°09'2 3.6
2019-May-12 21:00N 25°47' W 080°10'0 0.0
2019-May-12 20:30N 25°47' W 080°10'0 0.0
2019-May-12 20:00N 25°47' W 080°10'0 0.0
2019-May-12 19:30N 25°47' W 080°10'0 0.0
2019-May-12 19:00N 25°47' W 080°10'0 0.0
2019-May-12 18:30N 25°47' W 080°10'0 0.0
2019-May-12 18:00N 25°47' W 080°10'0 0.0
2019-May-12 17:30N 25°47' W 080°10'0 0.0
2019-May-12 17:00N 25°47' W 080°10'0 0.0
2019-May-12 16:30N 25°47' W 080°10'0 0.0
2019-May-12 16:00N 25°47' W 080°10'0 0.0
2019-May-12 15:30N 25°47' W 080°10'0 0.0
2019-May-12 15:00N 25°47' W 080°10'0 0.0
2019-May-12 14:30N 25°47' W 080°10'0 0.0
2019-May-12 14:00N 25°47' W 080°10'0 0.0
2019-May-12 13:30N 25°47' W 080°10'0 0.0
2019-May-12 13:00N 25°47' W 080°10'0 0.0
2019-May-12 12:30N 25°47' W 080°10'0 0.0
2019-May-12 12:00N 25°47' W 080°10'0 0.0
2019-May-12 11:30N 25°47' W 080°10'0 0.0
2019-May-12 11:00N 25°47' W 080°10'0 0.0
2019-May-12 10:30N 25°47' W 080°10'0 0.0
2019-May-12 10:00N 25°47' W 080°10'0 0.6
2019-May-12 09:30N 25°47' W 080°10'3 6.7
2019-May-12 09:00N 25°45' W 080°07'510.2
2019-May-12 08:30N 25°47' W 080°01'3 6.3
2019-May-12 08:00N 25°49' W 079°59'3 6.2
2019-May-12 07:30N 25°51' W 079°56'3 6.2
2019-May-12 07:00N 25°52' W 079°53'3 6.3
2019-May-12 06:30N 25°54' W 079°50'3 6.4
2019-May-12 06:00N 25°56' W 079°47'3 6.4
2019-May-12 05:30N 25°57' W 079°44'3 6.5
2019-May-12 05:00N 25°59' W 079°41'4 7.4
2019-May-12 04:30N 26°01' W 079°37'713.2
2019-May-12 04:00N 26°04' W 079°31'815.6
2019-May-12 03:30N 26°09' W 079°24'815.9
2019-May-12 03:00N 26°13' W 079°16'  
Track history (hours):
 
Tides and Currents Weather Stations Pressure Air Temp Water Temp Dewpoint Dewpoint Depression Visibility Wind Speed Wind Dir Waves Ship Positions

Disney Magic

Last reported at 2019-May-22 02:25 UTC. Time now 2019-May-22 16:40 UTC.
Position N 36°33' W 007°56'.

Type: Passenger vessel. MMSI: 308516000.

Date/timePositionNaut miles runAvg speedWind from/ knotsBaromVisibWave heightAir tempDewpointWater temp
2019-May-22 02:25N 36°33' W 007°56'921.5
2019-May-22 02:00N 36°32' W 008°07'1121.5
2019-May-22 01:29N 36°30' W 008°21'1121.4
2019-May-22 00:59N 36°30' W 008°34'1021.7
2019-May-22 00:30N 36°31' W 008°47'1421.9
2019-May-21 23:51N 36°31' W 009°04'1121.7
2019-May-21 23:22N 36°33' W 009°17'1022.0
2019-May-21 22:54N 36°41' W 009°25'5621.0
2019-May-21 20:13N 37°37' W 009°32'522.1
2019-May-21 20:00N 37°42' W 009°31'1122.0
2019-May-21 19:31N 37°53' W 009°29'1121.5
2019-May-21 19:00N 38°04' W 009°28'1121.3
2019-May-21 18:30N 38°14' W 009°27'1121.3
2019-May-21 18:00N 38°25' W 009°25'1020.8
2019-May-21 17:30N 38°35' W 009°24'816.6
2019-May-21 17:00N 38°41' W 009°17'611.3
2019-May-21 16:30N 38°42' W 009°09'2 3.3
2019-May-21 15:59N 38°43' W 009°08'0 0.0
2019-May-21 15:29N 38°43' W 009°08'0 0.0
2019-May-21 14:59N 38°43' W 009°08'0 0.0
2019-May-21 14:26N 38°43' W 009°08'0 0.0
2019-May-21 13:59N 38°43' W 009°08'0 0.0
2019-May-21 13:29N 38°43' W 009°08'0 0.0
2019-May-21 12:59N 38°43' W 009°08'0 0.0
2019-May-21 12:29N 38°43' W 009°08'0 0.0
2019-May-21 11:59N 38°43' W 009°08'0 0.0
2019-May-21 11:29N 38°43' W 009°08'0 0.0
2019-May-21 10:59N 38°43' W 009°08'0 0.0
2019-May-21 10:29N 38°43' W 009°08'0 0.0
2019-May-21 09:59N 38°43' W 009°08'0 0.0
2019-May-21 09:29N 38°43' W 009°08'0 0.0
2019-May-21 08:59N 38°43' W 009°08'0 0.0
2019-May-21 08:29N 38°43' W 009°08'0 0.2
2019-May-21 08:00N 38°42' W 009°08'3 5.7
2019-May-21 07:30N 38°41' W 009°11'510.0
2019-May-21 07:01N 38°41' W 009°17'5 9.2
2019-May-21 06:31N 38°38' W 009°22'5 9.5
2019-May-21 06:01N 38°35' W 009°27'4 8.6
2019-May-21 05:31N 38°35' W 009°32'4 8.9
2019-May-21 05:00N 38°33' W 009°38'510.8
2019-May-21 04:30N 38°32' W 009°45'817.0
2019-May-21 04:00N 38°30' W 009°55'917.6
2019-May-21 03:30N 38°28' W 010°06'5315.0
2019-May-21 00:00N 38°18' W 011°12'24520.5 300 / 121018.3 5.4 18.014.618.0
2019-May-20 12:00N 38°06' W 016°24'18022.5 270 / 141020.310.8 18.014.617.0
2019-May-20 04:00N 37°55' W 020°12'2121.9
2019-May-20 03:02N 37°54' W 020°39'121.5
2019-May-20 03:01N 37°54' W 020°40'1421.8
2019-May-20 02:23N 37°53' W 020°57'1521.8
2019-May-20 01:43N 37°52' W 021°15'721.8
2019-May-20 01:24N 37°52' W 021°24'921.6
2019-May-20 00:58N 37°51' W 021°36'1321.2
2019-May-20 00:23N 37°50' W 021°52'821.3
2019-May-19 23:59N 37°50' W 022°02'1121.1
2019-May-19 23:29N 37°49' W 022°16'1020.8
2019-May-19 23:00N 37°48' W 022°28'1120.9
2019-May-19 22:30N 37°47' W 022°42'1021.2
2019-May-19 22:00N 37°47' W 022°55'1121.0
2019-May-19 21:30N 37°46' W 023°08'1321.0
2019-May-19 20:53N 37°45' W 023°25'821.0
2019-May-19 20:31N 37°45' W 023°34'1121.1
2019-May-19 20:01N 37°44' W 023°48'1121.3
2019-May-19 19:31N 37°43' W 024°01'1121.2
2019-May-19 19:01N 37°42' W 024°14'2116.5
2019-May-19 19:00N 37°42' W 024°12'1326.2 280 / 101022.710.8 18.014.618.4
2019-May-19 18:31N 37°41' W 024°28'1020.0
2019-May-19 18:00N 37°40' W 024°41'918.9
2019-May-19 17:31N 37°40' W 024°52'1020.7
2019-May-19 17:01N 37°39' W 025°06'1121.4
2019-May-19 16:31N 37°40' W 025°19'1020.5
2019-May-19 16:01N 37°41' W 025°32'714.2
2019-May-19 15:31N 37°44' W 025°40'0 0.2
2019-May-19 15:00N 37°44' W 025°40'0 0.0
2019-May-19 14:30N 37°44' W 025°40'0 0.0
2019-May-19 13:57N 37°44' W 025°40'0 0.0
2019-May-19 13:30N 37°44' W 025°40'0 0.0
2019-May-19 13:00N 37°44' W 025°40'0 0.0
2019-May-19 12:30N 37°44' W 025°40'0 0.0
2019-May-19 12:00N 37°44' W 025°40'0 0.0
2019-May-19 11:30N 37°44' W 025°40'0 0.0
2019-May-19 11:00N 37°44' W 025°40'0 0.0
2019-May-19 10:27N 37°44' W 025°40'0 0.0
2019-May-19 10:00N 37°44' W 025°40'0 0.0
2019-May-19 09:30N 37°44' W 025°40'0 0.0
2019-May-19 09:00N 37°44' W 025°40'0 0.0
2019-May-19 08:30N 37°44' W 025°40'0 0.0
2019-May-19 08:00N 37°44' W 025°40'0 0.0
2019-May-19 07:30N 37°44' W 025°40'0 0.0
2019-May-19 07:00N 37°44' W 025°40'0 0.0
2019-May-19 06:30N 37°44' W 025°40'0 0.9
2019-May-19 06:00N 37°44' W 025°39'2 3.9
2019-May-19 05:30N 37°43' W 025°41'713.1
2019-May-19 05:00N 37°41' W 025°48'816.6
2019-May-19 04:30N 37°39' W 025°59'917.4
2019-May-19 04:00N 37°36' W 026°09'815.1
2019-May-19 03:30N 37°34' W 026°18'815.0
2019-May-19 03:00N 37°32' W 026°27'816.8
2019-May-19 02:30N 37°30' W 026°38'917.9
2019-May-19 02:00N 37°28' W 026°49'917.7
2019-May-19 01:30N 37°25' W 026°60'917.8
2019-May-19 01:00N 37°23' W 027°10'917.9
2019-May-19 00:30N 37°21' W 027°21'917.7
2019-May-19 00:00N 37°18' W 027°32'917.5
2019-May-18 23:30N 37°16' W 027°42'917.5
2019-May-18 23:00N 37°14' W 027°53'917.6
2019-May-18 22:30N 37°12' W 028°04'1017.6
2019-May-18 21:57N 37°09' W 028°15'817.6
2019-May-18 21:29N 37°07' W 028°26'917.5
2019-May-18 20:59N 37°05' W 028°36'1417.9
2019-May-18 20:13N 37°01' W 028°52'417.6
2019-May-18 20:01N 36°60' W 028°57'1317.6
2019-May-18 19:14N 36°56' W 029°13'1017.5
2019-May-18 18:41N 36°54' W 029°25'517.4
2019-May-18 18:22N 36°52' W 029°32'1317.4
2019-May-18 17:36N 36°49' W 029°48'3717.4
2019-May-18 15:27N 36°39' W 030°33'1510.4
2019-May-18 14:00N 36°30' W 030°48'17015.5 140 / 31026.327.0 18.014.519.0
2019-May-18 03:00N 35°48' W 034°12'21316.3 010 / 71026.310.8 18.014.519.0
2019-May-17 14:00N 34°54' W 038°24'19119.1 1027.327.0 21.016.020.0
2019-May-17 04:00N 34°00' W 042°06'20216.9 160 / 161027.310.8 20.018.421.0
2019-May-16 16:00N 33°06' W 046°00'40617.6 170 / 181025.327.0 21.019.421.0
2019-May-15 17:00N 31°18' W 053°42'25120.9 180 / 271019.310.8 23.021.523.0
2019-May-15 05:00N 30°12' W 058°24'26422.0 190 / 301015.327.0 24.022.523.0
2019-May-14 17:00N 29°06' W 063°18'15321.9 190 / 251015.827.0 24.022.524.0
2019-May-14 10:00N 28°24' W 066°06'49821.6 180 / 211015.310.8 24.022.525.6
2019-May-13 11:00N 26°12' W 075°06'22220.8 170 / 161015.610.8 26.024.627.0
2019-May-13 00:20N 26°13' W 079°14'721.7
2019-May-13 00:00N 26°09' W 079°20'1019.8
2019-May-12 23:30N 26°04' W 079°30'1122.6
2019-May-12 23:00N 25°58' W 079°41'1122.8
2019-May-12 22:30N 25°53' W 079°52'1121.7
2019-May-12 22:01N 25°47' W 080°02'611.6
2019-May-12 21:30N 25°46' W 080°09'2 3.6
2019-May-12 21:00N 25°47' W 080°10'0 0.0
2019-May-12 20:30N 25°47' W 080°10'0 0.0
2019-May-12 20:00N 25°47' W 080°10'0 0.0
2019-May-12 19:30N 25°47' W 080°10'0 0.0
2019-May-12 19:00N 25°47' W 080°10'0 0.0
2019-May-12 18:30N 25°47' W 080°10'0 0.0
2019-May-12 18:00N 25°47' W 080°10'0 0.0
2019-May-12 17:30N 25°47' W 080°10'0 0.0
2019-May-12 17:00N 25°47' W 080°10'0 0.0
2019-May-12 16:30N 25°47' W 080°10'0 0.0
2019-May-12 16:00N 25°47' W 080°10'0 0.0
2019-May-12 15:30N 25°47' W 080°10'0 0.0
2019-May-12 15:00N 25°47' W 080°10'0 0.0
2019-May-12 14:30N 25°47' W 080°10'0 0.0
2019-May-12 14:00N 25°47' W 080°10'0 0.0
2019-May-12 13:30N 25°47' W 080°10'0 0.0
2019-May-12 13:00N 25°47' W 080°10'0 0.0
2019-May-12 12:30N 25°47' W 080°10'0 0.0
2019-May-12 12:00N 25°47' W 080°10'0 0.0
2019-May-12 11:30N 25°47' W 080°10'0 0.0
2019-May-12 11:00N 25°47' W 080°10'0 0.0
2019-May-12 10:30N 25°47' W 080°10'0 0.0
2019-May-12 10:00N 25°47' W 080°10'0 0.6
2019-May-12 09:30N 25°47' W 080°10'3 6.7
2019-May-12 09:00N 25°45' W 080°07'510.2
2019-May-12 08:30N 25°47' W 080°01'3 6.3
2019-May-12 08:00N 25°49' W 079°59'3 6.2
2019-May-12 07:30N 25°51' W 079°56'3 6.2
2019-May-12 07:00N 25°52' W 079°53'3 6.3
2019-May-12 06:30N 25°54' W 079°50'3 6.4
2019-May-12 06:00N 25°56' W 079°47'3 6.4
2019-May-12 05:30N 25°57' W 079°44'3 6.5
2019-May-12 05:00N 25°59' W 079°41'4 7.4
2019-May-12 04:30N 26°01' W 079°37'713.2
2019-May-12 04:00N 26°04' W 079°31'815.6
2019-May-12 03:30N 26°09' W 079°24'815.9
2019-May-12 03:00N 26°13' W 079°16'  

Dump ship's entire track history